sensor_id;sensor_type;location;lat;lon;timestamp;P1;durP1;ratioP1;P2;durP2;ratioP2
74689;SDS011;63221;51.860;-2.188;2023-02-28T00:00:22;2.88;;;0.75;;
74689;SDS011;63221;51.860;-2.188;2023-02-28T00:02:48;10.93;;;1.30;;
74689;SDS011;63221;51.860;-2.188;2023-02-28T00:05:15;3.10;;;0.90;;
74689;SDS011;63221;51.860;-2.188;2023-02-28T00:07:42;4.18;;;1.10;;
74689;SDS011;63221;51.860;-2.188;2023-02-28T00:10:09;3.50;;;1.40;;
74689;SDS011;63221;51.860;-2.188;2023-02-28T00:12:38;2.90;;;1.05;;
74689;SDS011;63221;51.860;-2.188;2023-02-28T00:15:08;3.10;;;1.23;;
74689;SDS011;63221;51.860;-2.188;2023-02-28T00:17:34;5.80;;;1.98;;
74689;SDS011;63221;51.860;-2.188;2023-02-28T00:20:00;3.65;;;1.67;;
74689;SDS011;63221;51.860;-2.188;2023-02-28T00:22:37;3.08;;;1.63;;
74689;SDS011;63221;51.860;-2.188;2023-02-28T00:25:03;4.83;;;1.27;;
74689;SDS011;63221;51.860;-2.188;2023-02-28T00:27:30;4.78;;;1.80;;
74689;SDS011;63221;51.860;-2.188;2023-02-28T00:29:55;6.00;;;1.77;;
74689;SDS011;63221;51.860;-2.188;2023-02-28T00:32:21;5.23;;;1.43;;
74689;SDS011;63221;51.860;-2.188;2023-02-28T00:34:46;4.40;;;1.20;;
74689;SDS011;63221;51.860;-2.188;2023-02-28T00:37:11;5.13;;;2.50;;
74689;SDS011;63221;51.860;-2.188;2023-02-28T00:39:37;4.23;;;1.77;;
74689;SDS011;63221;51.860;-2.188;2023-02-28T00:42:03;3.83;;;1.65;;
74689;SDS011;63221;51.860;-2.188;2023-02-28T00:44:30;4.87;;;0.97;;
74689;SDS011;63221;51.860;-2.188;2023-02-28T00:46:56;3.83;;;1.80;;
74689;SDS011;63221;51.860;-2.188;2023-02-28T00:49:22;3.83;;;1.92;;
74689;SDS011;63221;51.860;-2.188;2023-02-28T00:51:48;3.72;;;1.27;;
74689;SDS011;63221;51.860;-2.188;2023-02-28T00:54:13;3.83;;;1.33;;
74689;SDS011;63221;51.860;-2.188;2023-02-28T00:56:39;4.05;;;2.60;;
74689;SDS011;63221;51.860;-2.188;2023-02-28T00:59:04;3.47;;;1.80;;
74689;SDS011;63221;51.860;-2.188;2023-02-28T01:01:30;4.47;;;1.57;;
74689;SDS011;63221;51.860;-2.188;2023-02-28T01:03:55;4.18;;;1.80;;
74689;SDS011;63221;51.860;-2.188;2023-02-28T01:06:21;5.07;;;1.90;;
74689;SDS011;63221;51.860;-2.188;2023-02-28T01:08:46;6.33;;;2.20;;
74689;SDS011;63221;51.860;-2.188;2023-02-28T01:11:12;3.60;;;1.70;;
74689;SDS011;63221;51.860;-2.188;2023-02-28T01:13:41;4.33;;;1.60;;
74689;SDS011;63221;51.860;-2.188;2023-02-28T01:16:07;3.40;;;1.75;;
74689;SDS011;63221;51.860;-2.188;2023-02-28T01:18:32;5.60;;;1.70;;
74689;SDS011;63221;51.860;-2.188;2023-02-28T01:20:57;3.80;;;1.88;;
74689;SDS011;63221;51.860;-2.188;2023-02-28T01:23:23;5.63;;;1.50;;
74689;SDS011;63221;51.860;-2.188;2023-02-28T01:25:49;3.40;;;1.90;;
74689;SDS011;63221;51.860;-2.188;2023-02-28T01:28:15;5.13;;;2.17;;
74689;SDS011;63221;51.860;-2.188;2023-02-28T01:30:41;3.55;;;1.80;;
74689;SDS011;63221;51.860;-2.188;2023-02-28T01:33:07;6.77;;;1.53;;
74689;SDS011;63221;51.860;-2.188;2023-02-28T01:35:32;4.60;;;1.57;;
74689;SDS011;63221;51.860;-2.188;2023-02-28T01:37:59;4.63;;;2.33;;
74689;SDS011;63221;51.860;-2.188;2023-02-28T01:40:24;4.57;;;2.07;;
74689;SDS011;63221;51.860;-2.188;2023-02-28T01:42:49;5.93;;;2.77;;
74689;SDS011;63221;51.860;-2.188;2023-02-28T01:45:28;4.80;;;1.90;;
74689;SDS011;63221;51.860;-2.188;2023-02-28T01:48:04;4.00;;;2.08;;
74689;SDS011;63221;51.860;-2.188;2023-02-28T01:50:33;5.10;;;2.10;;
74689;SDS011;63221;51.860;-2.188;2023-02-28T01:53:02;3.85;;;1.70;;
74689;SDS011;63221;51.860;-2.188;2023-02-28T01:55:29;6.53;;;2.47;;
74689;SDS011;63221;51.860;-2.188;2023-02-28T01:57:56;3.67;;;1.80;;
74689;SDS011;63221;51.860;-2.188;2023-02-28T02:00:24;3.88;;;1.80;;
74689;SDS011;63221;51.860;-2.188;2023-02-28T02:02:53;4.73;;;2.10;;
74689;SDS011;63221;51.860;-2.188;2023-02-28T02:05:23;3.53;;;2.00;;
74689;SDS011;63221;51.860;-2.188;2023-02-28T02:07:51;4.30;;;2.15;;
74689;SDS011;63221;51.860;-2.188;2023-02-28T02:10:31;6.22;;;2.10;;
74689;SDS011;63221;51.860;-2.188;2023-02-28T02:29:42;7.20;;;2.87;;
74689;SDS011;63221;51.860;-2.188;2023-02-28T02:40:15;6.57;;;3.30;;
74689;SDS011;63221;51.860;-2.188;2023-02-28T02:43:03;6.57;;;3.50;;
74689;SDS011;63221;51.860;-2.188;2023-02-28T02:48:00;7.53;;;2.80;;
74689;SDS011;63221;51.860;-2.188;2023-02-28T02:50:33;6.18;;;3.63;;
74689;SDS011;63221;51.860;-2.188;2023-02-28T02:53:02;5.57;;;3.90;;
74689;SDS011;63221;51.860;-2.188;2023-02-28T02:55:29;7.00;;;4.10;;
74689;SDS011;63221;51.860;-2.188;2023-02-28T02:58:01;4.78;;;3.15;;
74689;SDS011;63221;51.860;-2.188;2023-02-28T03:00:30;6.40;;;3.05;;
74689;SDS011;63221;51.860;-2.188;2023-02-28T03:02:59;7.13;;;3.75;;
74689;SDS011;63221;51.860;-2.188;2023-02-28T03:05:27;9.85;;;3.83;;
74689;SDS011;63221;51.860;-2.188;2023-02-28T03:08:14;5.90;;;3.40;;
74689;SDS011;63221;51.860;-2.188;2023-02-28T03:18:24;8.07;;;3.67;;
74689;SDS011;63221;51.860;-2.188;2023-02-28T03:21:06;6.25;;;2.83;;
74689;SDS011;63221;51.860;-2.188;2023-02-28T03:26:05;6.50;;;3.53;;
74689;SDS011;63221;51.860;-2.188;2023-02-28T03:31:27;4.63;;;2.60;;
74689;SDS011;63221;51.860;-2.188;2023-02-28T03:34:06;6.80;;;3.47;;
74689;SDS011;63221;51.860;-2.188;2023-02-28T03:36:37;5.60;;;3.55;;
74689;SDS011;63221;51.860;-2.188;2023-02-28T03:39:14;6.55;;;3.40;;
74689;SDS011;63221;51.860;-2.188;2023-02-28T03:41:43;5.40;;;2.83;;
74689;SDS011;63221;51.860;-2.188;2023-02-28T03:49:35;5.90;;;3.25;;
74689;SDS011;63221;51.860;-2.188;2023-02-28T03:52:05;5.97;;;3.50;;
74689;SDS011;63221;51.860;-2.188;2023-02-28T03:54:32;16.30;;;3.45;;
74689;SDS011;63221;51.860;-2.188;2023-02-28T03:59:59;5.68;;;2.85;;
74689;SDS011;63221;51.860;-2.188;2023-02-28T04:02:30;7.20;;;3.90;;
74689;SDS011;63221;51.860;-2.188;2023-02-28T04:04:56;6.32;;;3.97;;
74689;SDS011;63221;51.860;-2.188;2023-02-28T04:07:22;8.10;;;4.13;;
74689;SDS011;63221;51.860;-2.188;2023-02-28T04:09:47;9.57;;;4.70;;
74689;SDS011;63221;51.860;-2.188;2023-02-28T04:12:12;9.87;;;4.70;;
74689;SDS011;63221;51.860;-2.188;2023-02-28T04:14:38;6.70;;;4.40;;
74689;SDS011;63221;51.860;-2.188;2023-02-28T04:17:03;8.10;;;4.93;;
74689;SDS011;63221;51.860;-2.188;2023-02-28T04:19:29;8.33;;;5.00;;
74689;SDS011;63221;51.860;-2.188;2023-02-28T04:21:54;7.33;;;5.30;;
74689;SDS011;63221;51.860;-2.188;2023-02-28T04:24:21;7.82;;;4.97;;
74689;SDS011;63221;51.860;-2.188;2023-02-28T04:26:49;8.60;;;5.38;;
74689;SDS011;63221;51.860;-2.188;2023-02-28T04:29:20;8.17;;;4.50;;
74689;SDS011;63221;51.860;-2.188;2023-02-28T04:31:48;11.00;;;5.40;;
74689;SDS011;63221;51.860;-2.188;2023-02-28T04:34:14;9.03;;;5.10;;
74689;SDS011;63221;51.860;-2.188;2023-02-28T04:36:39;7.80;;;4.30;;
74689;SDS011;63221;51.860;-2.188;2023-02-28T04:39:05;11.73;;;5.70;;
74689;SDS011;63221;51.860;-2.188;2023-02-28T04:41:30;9.15;;;5.03;;
74689;SDS011;63221;51.860;-2.188;2023-02-28T04:43:56;8.83;;;5.33;;
74689;SDS011;63221;51.860;-2.188;2023-02-28T04:46:22;9.13;;;5.37;;
74689;SDS011;63221;51.860;-2.188;2023-02-28T04:48:47;10.13;;;4.90;;
74689;SDS011;63221;51.860;-2.188;2023-02-28T04:51:13;9.50;;;5.53;;
74689;SDS011;63221;51.860;-2.188;2023-02-28T04:53:40;8.32;;;4.55;;
74689;SDS011;63221;51.860;-2.188;2023-02-28T04:56:06;9.43;;;5.47;;
74689;SDS011;63221;51.860;-2.188;2023-02-28T04:58:33;8.60;;;5.10;;
74689;SDS011;63221;51.860;-2.188;2023-02-28T05:01:06;8.10;;;4.57;;
74689;SDS011;63221;51.860;-2.188;2023-02-28T05:03:42;8.40;;;5.68;;
74689;SDS011;63221;51.860;-2.188;2023-02-28T05:06:08;9.27;;;4.97;;
74689;SDS011;63221;51.860;-2.188;2023-02-28T05:08:34;10.65;;;5.57;;
74689;SDS011;63221;51.860;-2.188;2023-02-28T05:11:00;10.83;;;5.57;;
74689;SDS011;63221;51.860;-2.188;2023-02-28T05:13:26;10.50;;;6.72;;
74689;SDS011;63221;51.860;-2.188;2023-02-28T05:15:52;9.27;;;5.93;;
74689;SDS011;63221;51.860;-2.188;2023-02-28T05:18:18;11.32;;;5.72;;
74689;SDS011;63221;51.860;-2.188;2023-02-28T05:20:43;8.90;;;5.60;;
74689;SDS011;63221;51.860;-2.188;2023-02-28T05:23:10;10.50;;;5.83;;
74689;SDS011;63221;51.860;-2.188;2023-02-28T05:25:36;11.45;;;5.72;;
74689;SDS011;63221;51.860;-2.188;2023-02-28T05:28:02;9.83;;;5.80;;
74689;SDS011;63221;51.860;-2.188;2023-02-28T05:30:27;14.65;;;5.78;;
74689;SDS011;63221;51.860;-2.188;2023-02-28T05:32:52;10.43;;;5.63;;
74689;SDS011;63221;51.860;-2.188;2023-02-28T05:35:18;11.73;;;6.37;;
74689;SDS011;63221;51.860;-2.188;2023-02-28T05:37:43;9.77;;;6.10;;
74689;SDS011;63221;51.860;-2.188;2023-02-28T05:40:09;10.55;;;6.22;;
74689;SDS011;63221;51.860;-2.188;2023-02-28T05:42:35;10.05;;;6.32;;
74689;SDS011;63221;51.860;-2.188;2023-02-28T05:45:01;11.23;;;6.20;;
74689;SDS011;63221;51.860;-2.188;2023-02-28T05:47:27;11.13;;;6.28;;
74689;SDS011;63221;51.860;-2.188;2023-02-28T05:49:52;12.30;;;6.07;;
74689;SDS011;63221;51.860;-2.188;2023-02-28T05:52:18;13.43;;;7.00;;
74689;SDS011;63221;51.860;-2.188;2023-02-28T05:54:43;12.25;;;6.95;;
74689;SDS011;63221;51.860;-2.188;2023-02-28T05:57:08;11.97;;;6.13;;
74689;SDS011;63221;51.860;-2.188;2023-02-28T05:59:34;10.43;;;5.90;;
74689;SDS011;63221;51.860;-2.188;2023-02-28T06:01:59;14.30;;;7.30;;
74689;SDS011;63221;51.860;-2.188;2023-02-28T06:04:25;13.07;;;6.30;;
74689;SDS011;63221;51.860;-2.188;2023-02-28T06:06:50;10.93;;;6.60;;
74689;SDS011;63221;51.860;-2.188;2023-02-28T06:09:16;11.77;;;7.17;;
74689;SDS011;63221;51.860;-2.188;2023-02-28T06:11:42;12.95;;;7.28;;
74689;SDS011;63221;51.860;-2.188;2023-02-28T06:14:12;13.87;;;6.90;;
74689;SDS011;63221;51.860;-2.188;2023-02-28T06:16:40;16.02;;;7.72;;
74689;SDS011;63221;51.860;-2.188;2023-02-28T06:19:05;12.63;;;7.07;;
74689;SDS011;63221;51.860;-2.188;2023-02-28T06:21:31;13.17;;;6.93;;
74689;SDS011;63221;51.860;-2.188;2023-02-28T06:23:56;14.00;;;7.25;;
74689;SDS011;63221;51.860;-2.188;2023-02-28T06:26:22;12.10;;;7.10;;
74689;SDS011;63221;51.860;-2.188;2023-02-28T06:28:48;14.32;;;7.53;;
74689;SDS011;63221;51.860;-2.188;2023-02-28T06:31:14;13.03;;;7.43;;
74689;SDS011;63221;51.860;-2.188;2023-02-28T06:33:42;13.52;;;7.28;;
74689;SDS011;63221;51.860;-2.188;2023-02-28T06:36:09;13.35;;;7.32;;
74689;SDS011;63221;51.860;-2.188;2023-02-28T06:38:35;16.50;;;8.43;;
74689;SDS011;63221;51.860;-2.188;2023-02-28T06:41:01;13.95;;;7.40;;
74689;SDS011;63221;51.860;-2.188;2023-02-28T06:43:28;14.80;;;7.43;;
74689;SDS011;63221;51.860;-2.188;2023-02-28T06:45:55;14.52;;;7.53;;
74689;SDS011;63221;51.860;-2.188;2023-02-28T06:48:21;13.83;;;7.90;;
74689;SDS011;63221;51.860;-2.188;2023-02-28T06:50:47;10.68;;;7.10;;
74689;SDS011;63221;51.860;-2.188;2023-02-28T06:53:13;14.77;;;8.13;;
74689;SDS011;63221;51.860;-2.188;2023-02-28T06:55:38;14.03;;;7.37;;
74689;SDS011;63221;51.860;-2.188;2023-02-28T06:58:04;13.27;;;7.60;;
74689;SDS011;63221;51.860;-2.188;2023-02-28T07:00:42;14.27;;;7.38;;
74689;SDS011;63221;51.860;-2.188;2023-02-28T07:03:08;13.82;;;7.60;;
74689;SDS011;63221;51.860;-2.188;2023-02-28T07:05:38;14.20;;;8.30;;
74689;SDS011;63221;51.860;-2.188;2023-02-28T07:08:04;15.67;;;7.07;;
74689;SDS011;63221;51.860;-2.188;2023-02-28T07:10:31;12.45;;;7.13;;
74689;SDS011;63221;51.860;-2.188;2023-02-28T07:13:01;17.77;;;7.32;;
74689;SDS011;63221;51.860;-2.188;2023-02-28T07:15:28;17.95;;;7.95;;
74689;SDS011;63221;51.860;-2.188;2023-02-28T07:17:54;19.40;;;7.63;;
74689;SDS011;63221;51.860;-2.188;2023-02-28T07:20:19;18.37;;;8.83;;
74689;SDS011;63221;51.860;-2.188;2023-02-28T07:22:44;16.80;;;8.47;;
74689;SDS011;63221;51.860;-2.188;2023-02-28T07:25:10;14.40;;;7.87;;
74689;SDS011;63221;51.860;-2.188;2023-02-28T07:27:35;18.97;;;8.13;;
74689;SDS011;63221;51.860;-2.188;2023-02-28T07:30:01;19.77;;;9.17;;
74689;SDS011;63221;51.860;-2.188;2023-02-28T07:32:28;18.73;;;8.85;;
74689;SDS011;63221;51.860;-2.188;2023-02-28T07:34:53;18.57;;;8.80;;
74689;SDS011;63221;51.860;-2.188;2023-02-28T07:37:19;17.63;;;8.03;;
74689;SDS011;63221;51.860;-2.188;2023-02-28T07:39:45;16.67;;;8.05;;
74689;SDS011;63221;51.860;-2.188;2023-02-28T07:42:10;17.13;;;8.73;;
74689;SDS011;63221;51.860;-2.188;2023-02-28T07:44:37;21.02;;;8.95;;
74689;SDS011;63221;51.860;-2.188;2023-02-28T07:47:06;17.20;;;8.80;;
74689;SDS011;63221;51.860;-2.188;2023-02-28T07:49:35;19.20;;;9.45;;
74689;SDS011;63221;51.860;-2.188;2023-02-28T07:52:01;18.97;;;9.33;;
74689;SDS011;63221;51.860;-2.188;2023-02-28T07:54:30;21.95;;;10.07;;
74689;SDS011;63221;51.860;-2.188;2023-02-28T07:56:55;18.23;;;8.37;;
74689;SDS011;63221;51.860;-2.188;2023-02-28T07:59:21;21.02;;;8.70;;
74689;SDS011;63221;51.860;-2.188;2023-02-28T08:01:46;23.47;;;10.23;;
74689;SDS011;63221;51.860;-2.188;2023-02-28T08:04:13;23.20;;;10.88;;
74689;SDS011;63221;51.860;-2.188;2023-02-28T08:06:39;22.03;;;9.23;;
74689;SDS011;63221;51.860;-2.188;2023-02-28T08:09:04;20.23;;;9.37;;
74689;SDS011;63221;51.860;-2.188;2023-02-28T08:11:29;23.23;;;9.87;;
74689;SDS011;63221;51.860;-2.188;2023-02-28T08:13:55;23.33;;;10.13;;
74689;SDS011;63221;51.860;-2.188;2023-02-28T08:16:20;22.30;;;8.52;;
74689;SDS011;63221;51.860;-2.188;2023-02-28T08:18:49;25.20;;;10.43;;
74689;SDS011;63221;51.860;-2.188;2023-02-28T08:21:15;19.33;;;9.20;;
74689;SDS011;63221;51.860;-2.188;2023-02-28T08:23:41;23.90;;;10.07;;
74689;SDS011;63221;51.860;-2.188;2023-02-28T08:26:06;21.20;;;10.00;;
74689;SDS011;63221;51.860;-2.188;2023-02-28T08:28:31;23.77;;;9.47;;
74689;SDS011;63221;51.860;-2.188;2023-02-28T08:30:57;22.07;;;7.97;;
74689;SDS011;63221;51.860;-2.188;2023-02-28T08:33:23;25.50;;;10.00;;
74689;SDS011;63221;51.860;-2.188;2023-02-28T08:35:52;19.42;;;9.13;;
74689;SDS011;63221;51.860;-2.188;2023-02-28T08:38:20;21.98;;;10.90;;
74689;SDS011;63221;51.860;-2.188;2023-02-28T08:40:46;20.50;;;8.33;;
74689;SDS011;63221;51.860;-2.188;2023-02-28T08:43:11;23.40;;;9.20;;
74689;SDS011;63221;51.860;-2.188;2023-02-28T08:45:36;19.33;;;9.03;;
74689;SDS011;63221;51.860;-2.188;2023-02-28T08:48:02;19.20;;;8.10;;
74689;SDS011;63221;51.860;-2.188;2023-02-28T08:50:28;19.63;;;8.73;;
74689;SDS011;63221;51.860;-2.188;2023-02-28T08:52:53;31.00;;;8.98;;
74689;SDS011;63221;51.860;-2.188;2023-02-28T08:55:19;20.23;;;8.07;;
74689;SDS011;63221;51.860;-2.188;2023-02-28T08:57:44;17.90;;;8.17;;
74689;SDS011;63221;51.860;-2.188;2023-02-28T09:00:10;17.47;;;7.87;;
74689;SDS011;63221;51.860;-2.188;2023-02-28T09:02:38;16.23;;;7.22;;
74689;SDS011;63221;51.860;-2.188;2023-02-28T09:05:04;14.35;;;6.55;;
74689;SDS011;63221;51.860;-2.188;2023-02-28T09:07:30;17.10;;;8.23;;
74689;SDS011;63221;51.860;-2.188;2023-02-28T09:09:55;17.02;;;7.07;;
74689;SDS011;63221;51.860;-2.188;2023-02-28T09:12:22;16.87;;;8.03;;
74689;SDS011;63221;51.860;-2.188;2023-02-28T09:14:51;19.75;;;8.48;;
74689;SDS011;63221;51.860;-2.188;2023-02-28T09:17:17;16.77;;;7.10;;
74689;SDS011;63221;51.860;-2.188;2023-02-28T09:19:42;19.70;;;8.05;;
74689;SDS011;63221;51.860;-2.188;2023-02-28T09:22:09;16.53;;;7.30;;
74689;SDS011;63221;51.860;-2.188;2023-02-28T09:24:35;21.20;;;7.97;;
74689;SDS011;63221;51.860;-2.188;2023-02-28T09:27:02;20.08;;;7.97;;
74689;SDS011;63221;51.860;-2.188;2023-02-28T09:29:27;16.50;;;6.73;;
74689;SDS011;63221;51.860;-2.188;2023-02-28T09:31:53;23.57;;;8.67;;
74689;SDS011;63221;51.860;-2.188;2023-02-28T09:34:18;18.85;;;7.68;;
74689;SDS011;63221;51.860;-2.188;2023-02-28T09:36:44;17.33;;;6.82;;
74689;SDS011;63221;51.860;-2.188;2023-02-28T09:39:10;16.17;;;6.30;;
74689;SDS011;63221;51.860;-2.188;2023-02-28T09:41:38;19.83;;;7.43;;
74689;SDS011;63221;51.860;-2.188;2023-02-28T09:44:12;18.30;;;8.23;;
74689;SDS011;63221;51.860;-2.188;2023-02-28T09:46:48;19.52;;;8.02;;
74689;SDS011;63221;51.860;-2.188;2023-02-28T09:49:23;19.40;;;7.82;;
74689;SDS011;63221;51.860;-2.188;2023-02-28T09:54:24;17.65;;;7.63;;
74689;SDS011;63221;51.860;-2.188;2023-02-28T09:56:58;22.67;;;10.30;;
74689;SDS011;63221;51.860;-2.188;2023-02-28T10:05:20;21.85;;;8.25;;
74689;SDS011;63221;51.860;-2.188;2023-02-28T10:10:51;20.92;;;8.38;;
74689;SDS011;63221;51.860;-2.188;2023-02-28T10:16:37;18.17;;;7.65;;
74689;SDS011;63221;51.860;-2.188;2023-02-28T10:19:11;16.85;;;6.82;;
74689;SDS011;63221;51.860;-2.188;2023-02-28T10:21:59;16.40;;;7.03;;
74689;SDS011;63221;51.860;-2.188;2023-02-28T10:24:32;15.98;;;6.45;;
74689;SDS011;63221;51.860;-2.188;2023-02-28T10:27:03;11.97;;;5.67;;
74689;SDS011;63221;51.860;-2.188;2023-02-28T10:29:37;14.85;;;6.68;;
74689;SDS011;63221;51.860;-2.188;2023-02-28T10:32:05;15.77;;;6.03;;
74689;SDS011;63221;51.860;-2.188;2023-02-28T10:34:31;15.50;;;6.33;;
74689;SDS011;63221;51.860;-2.188;2023-02-28T10:36:56;13.07;;;4.83;;
74689;SDS011;63221;51.860;-2.188;2023-02-28T10:42:01;12.98;;;5.20;;
74689;SDS011;63221;51.860;-2.188;2023-02-28T10:44:26;11.23;;;4.73;;
74689;SDS011;63221;51.860;-2.188;2023-02-28T10:46:52;11.57;;;4.70;;
74689;SDS011;63221;51.860;-2.188;2023-02-28T10:49:20;12.80;;;5.53;;
74689;SDS011;63221;51.860;-2.188;2023-02-28T10:51:48;12.65;;;5.82;;
74689;SDS011;63221;51.860;-2.188;2023-02-28T10:54:18;10.60;;;4.93;;
74689;SDS011;63221;51.860;-2.188;2023-02-28T10:56:45;11.38;;;4.88;;
74689;SDS011;63221;51.860;-2.188;2023-02-28T10:59:27;11.82;;;4.90;;
74689;SDS011;63221;51.860;-2.188;2023-02-28T11:01:54;11.15;;;5.57;;
74689;SDS011;63221;51.860;-2.188;2023-02-28T11:07:18;11.70;;;4.85;;
74689;SDS011;63221;51.860;-2.188;2023-02-28T11:09:48;11.63;;;5.32;;
74689;SDS011;63221;51.860;-2.188;2023-02-28T11:12:22;8.37;;;3.77;;
74689;SDS011;63221;51.860;-2.188;2023-02-28T11:14:57;8.68;;;4.07;;
74689;SDS011;63221;51.860;-2.188;2023-02-28T11:17:24;8.32;;;3.53;;
74689;SDS011;63221;51.860;-2.188;2023-02-28T11:19:53;9.77;;;5.25;;
74689;SDS011;63221;51.860;-2.188;2023-02-28T11:22:22;8.70;;;4.75;;
74689;SDS011;63221;51.860;-2.188;2023-02-28T11:24:50;11.73;;;5.30;;
74689;SDS011;63221;51.860;-2.188;2023-02-28T11:29:54;8.48;;;4.18;;
74689;SDS011;63221;51.860;-2.188;2023-02-28T11:32:21;8.17;;;3.93;;
74689;SDS011;63221;51.860;-2.188;2023-02-28T11:34:59;9.20;;;3.95;;
74689;SDS011;63221;51.860;-2.188;2023-02-28T11:37:47;9.00;;;4.13;;
74689;SDS011;63221;51.860;-2.188;2023-02-28T11:40:17;10.03;;;4.50;;
74689;SDS011;63221;51.860;-2.188;2023-02-28T11:45:39;8.27;;;3.70;;
74689;SDS011;63221;51.860;-2.188;2023-02-28T11:48:23;8.18;;;3.47;;
74689;SDS011;63221;51.860;-2.188;2023-02-28T11:56:48;10.67;;;5.03;;
74689;SDS011;63221;51.860;-2.188;2023-02-28T12:05:33;7.30;;;3.78;;
74689;SDS011;63221;51.860;-2.188;2023-02-28T12:10:37;6.73;;;4.40;;
74689;SDS011;63221;51.860;-2.188;2023-02-28T12:16:08;8.05;;;3.40;;
74689;SDS011;63221;51.860;-2.188;2023-02-28T12:18:42;6.68;;;2.97;;
74689;SDS011;63221;51.860;-2.188;2023-02-28T12:26:51;9.82;;;3.88;;
74689;SDS011;63221;51.860;-2.188;2023-02-28T12:29:21;7.40;;;3.45;;
74689;SDS011;63221;51.860;-2.188;2023-02-28T12:31:51;6.35;;;2.95;;
74689;SDS011;63221;51.860;-2.188;2023-02-28T12:34:21;7.80;;;3.38;;
74689;SDS011;63221;51.860;-2.188;2023-02-28T12:36:50;5.57;;;3.07;;
74689;SDS011;63221;51.860;-2.188;2023-02-28T12:39:19;7.75;;;4.13;;
74689;SDS011;63221;51.860;-2.188;2023-02-28T12:41:49;6.28;;;3.08;;
74689;SDS011;63221;51.860;-2.188;2023-02-28T12:47:16;4.60;;;2.10;;
74689;SDS011;63221;51.860;-2.188;2023-02-28T12:49:45;4.17;;;2.43;;
74689;SDS011;63221;51.860;-2.188;2023-02-28T12:52:15;5.28;;;1.88;;
74689;SDS011;63221;51.860;-2.188;2023-02-28T12:54:45;6.03;;;2.78;;
74689;SDS011;63221;51.860;-2.188;2023-02-28T13:00:04;6.15;;;2.40;;
74689;SDS011;63221;51.860;-2.188;2023-02-28T13:03:32;4.70;;;2.03;;
74689;SDS011;63221;51.860;-2.188;2023-02-28T13:10:55;5.30;;;2.53;;
74689;SDS011;63221;51.860;-2.188;2023-02-28T13:13:25;4.50;;;2.00;;
74689;SDS011;63221;51.860;-2.188;2023-02-28T13:18:29;4.53;;;1.80;;
74689;SDS011;63221;51.860;-2.188;2023-02-28T13:21:02;5.40;;;2.30;;
74689;SDS011;63221;51.860;-2.188;2023-02-28T13:26:21;4.28;;;1.88;;
74689;SDS011;63221;51.860;-2.188;2023-02-28T13:31:30;3.40;;;1.60;;
74689;SDS011;63221;51.860;-2.188;2023-02-28T13:34:05;5.30;;;2.10;;
74689;SDS011;63221;51.860;-2.188;2023-02-28T13:36:37;2.90;;;1.40;;
74689;SDS011;63221;51.860;-2.188;2023-02-28T13:39:03;2.70;;;1.17;;
74689;SDS011;63221;51.860;-2.188;2023-02-28T13:58:25;2.50;;;0.90;;
74689;SDS011;63221;51.860;-2.188;2023-02-28T14:04:14;3.67;;;1.40;;
74689;SDS011;63221;51.860;-2.188;2023-02-28T14:07:02;4.05;;;1.63;;
74689;SDS011;63221;51.860;-2.188;2023-02-28T14:09:35;3.33;;;1.80;;
74689;SDS011;63221;51.860;-2.188;2023-02-28T14:17:56;6.63;;;2.22;;
74689;SDS011;63221;51.860;-2.188;2023-02-28T14:20:24;4.03;;;2.27;;
74689;SDS011;63221;51.860;-2.188;2023-02-28T14:22:58;3.85;;;1.70;;
74689;SDS011;63221;51.860;-2.188;2023-02-28T14:31:12;4.03;;;2.25;;
74689;SDS011;63221;51.860;-2.188;2023-02-28T14:36:42;6.18;;;3.15;;
74689;SDS011;63221;51.860;-2.188;2023-02-28T14:39:12;4.65;;;2.08;;
74689;SDS011;63221;51.860;-2.188;2023-02-28T14:41:40;2.90;;;1.88;;
74689;SDS011;63221;51.860;-2.188;2023-02-28T14:44:25;3.88;;;2.75;;
74689;SDS011;63221;51.860;-2.188;2023-02-28T14:46:53;3.53;;;1.47;;
74689;SDS011;63221;51.860;-2.188;2023-02-28T14:49:24;6.13;;;2.20;;
74689;SDS011;63221;51.860;-2.188;2023-02-28T14:52:02;2.83;;;1.55;;
74689;SDS011;63221;51.860;-2.188;2023-02-28T14:54:34;4.05;;;1.52;;
74689;SDS011;63221;51.860;-2.188;2023-02-28T14:57:00;4.97;;;2.33;;
74689;SDS011;63221;51.860;-2.188;2023-02-28T14:59:35;3.10;;;1.77;;
74689;SDS011;63221;51.860;-2.188;2023-02-28T15:05:00;3.43;;;1.50;;
74689;SDS011;63221;51.860;-2.188;2023-02-28T15:07:41;5.65;;;1.83;;
74689;SDS011;63221;51.860;-2.188;2023-02-28T15:12:45;4.53;;;2.20;;
74689;SDS011;63221;51.860;-2.188;2023-02-28T15:15:21;5.35;;;2.10;;
74689;SDS011;63221;51.860;-2.188;2023-02-28T15:17:49;5.00;;;2.20;;
74689;SDS011;63221;51.860;-2.188;2023-02-28T15:20:16;3.60;;;1.50;;
74689;SDS011;63221;51.860;-2.188;2023-02-28T15:22:43;4.93;;;1.70;;
74689;SDS011;63221;51.860;-2.188;2023-02-28T15:25:10;2.85;;;1.55;;
74689;SDS011;63221;51.860;-2.188;2023-02-28T15:27:42;3.45;;;1.83;;
74689;SDS011;63221;51.860;-2.188;2023-02-28T15:30:21;2.73;;;1.40;;
74689;SDS011;63221;51.860;-2.188;2023-02-28T15:35:43;3.15;;;1.55;;
74689;SDS011;63221;51.860;-2.188;2023-02-28T15:38:22;3.67;;;1.38;;
74689;SDS011;63221;51.860;-2.188;2023-02-28T15:40:57;3.58;;;1.10;;
74689;SDS011;63221;51.860;-2.188;2023-02-28T15:45:59;3.40;;;1.23;;
74689;SDS011;63221;51.860;-2.188;2023-02-28T15:51:08;2.88;;;1.80;;
74689;SDS011;63221;51.860;-2.188;2023-02-28T15:53:39;2.95;;;1.52;;
74689;SDS011;63221;51.860;-2.188;2023-02-28T15:56:29;3.10;;;1.27;;
74689;SDS011;63221;51.860;-2.188;2023-02-28T15:59:05;3.67;;;1.30;;
74689;SDS011;63221;51.860;-2.188;2023-02-28T16:01:35;3.60;;;1.17;;
74689;SDS011;63221;51.860;-2.188;2023-02-28T16:04:20;2.80;;;0.93;;
74689;SDS011;63221;51.860;-2.188;2023-02-28T16:09:29;3.23;;;1.00;;
74689;SDS011;63221;51.860;-2.188;2023-02-28T16:11:56;2.47;;;0.93;;
74689;SDS011;63221;51.860;-2.188;2023-02-28T16:14:26;2.97;;;1.58;;
74689;SDS011;63221;51.860;-2.188;2023-02-28T16:16:53;3.28;;;1.50;;
74689;SDS011;63221;51.860;-2.188;2023-02-28T16:19:20;5.03;;;2.03;;
74689;SDS011;63221;51.860;-2.188;2023-02-28T16:21:46;2.43;;;0.90;;
74689;SDS011;63221;51.860;-2.188;2023-02-28T16:24:12;3.25;;;0.90;;
74689;SDS011;63221;51.860;-2.188;2023-02-28T16:26:38;2.80;;;0.93;;
74689;SDS011;63221;51.860;-2.188;2023-02-28T16:29:05;3.08;;;1.20;;
74689;SDS011;63221;51.860;-2.188;2023-02-28T16:31:33;3.53;;;1.13;;
74689;SDS011;63221;51.860;-2.188;2023-02-28T16:34:00;3.85;;;1.58;;
74689;SDS011;63221;51.860;-2.188;2023-02-28T16:36:26;3.40;;;1.67;;
74689;SDS011;63221;51.860;-2.188;2023-02-28T16:38:53;2.65;;;1.30;;
74689;SDS011;63221;51.860;-2.188;2023-02-28T16:41:20;3.08;;;1.83;;
74689;SDS011;63221;51.860;-2.188;2023-02-28T16:43:48;3.73;;;1.20;;
74689;SDS011;63221;51.860;-2.188;2023-02-28T16:46:15;5.05;;;1.67;;
74689;SDS011;63221;51.860;-2.188;2023-02-28T16:48:41;3.65;;;1.30;;
74689;SDS011;63221;51.860;-2.188;2023-02-28T16:51:11;5.40;;;1.38;;
74689;SDS011;63221;51.860;-2.188;2023-02-28T16:53:37;3.40;;;1.95;;
74689;SDS011;63221;51.860;-2.188;2023-02-28T16:56:02;3.60;;;1.60;;
74689;SDS011;63221;51.860;-2.188;2023-02-28T16:58:29;3.92;;;1.48;;
74689;SDS011;63221;51.860;-2.188;2023-02-28T17:00:54;3.50;;;1.63;;
74689;SDS011;63221;51.860;-2.188;2023-02-28T17:03:24;3.37;;;1.20;;
74689;SDS011;63221;51.860;-2.188;2023-02-28T17:05:51;3.22;;;1.23;;
74689;SDS011;63221;51.860;-2.188;2023-02-28T17:08:17;3.28;;;1.42;;
74689;SDS011;63221;51.860;-2.188;2023-02-28T17:10:43;3.33;;;1.90;;
74689;SDS011;63221;51.860;-2.188;2023-02-28T17:13:08;3.00;;;1.37;;
74689;SDS011;63221;51.860;-2.188;2023-02-28T17:15:34;3.03;;;1.58;;
74689;SDS011;63221;51.860;-2.188;2023-02-28T17:18:00;4.38;;;1.48;;
74689;SDS011;63221;51.860;-2.188;2023-02-28T17:20:26;2.53;;;1.50;;
74689;SDS011;63221;51.860;-2.188;2023-02-28T17:22:54;3.37;;;1.87;;